CheckWX is a tool to help pilots better visualize weather data.  It is not intended as a substitute for an official pre-flight weather briefing.

21:02:33 UTC

EDDE METAR
Erfurt Airport
Erfurt, Germany
Current

13 mins ago

EDDE 232050Z 19005KT CAVOK 13/08 Q1017
Observed
May-23 @ 20:50 UTC
Wind
  • 190° at 5 KTS
Visibility
10,000+ meters
Flight Rules
VFR
Cloud Levels
  • Clear skies
Temperature
13°C / 55°F
Dewpoint
C / 46°F
Humidity
72%
Altimeter
30.03" Hg
Pressure
1016.92 hPa
Previous

43 mins ago

EDDE 232020Z VRB01KT CAVOK 16/07 Q1017
Observed
May-23 @ 20:20 UTC
Wind
  • Variable at 1 KTS
Visibility
10,000+ meters
Flight Rules
VFR
Cloud Levels
  • Clear skies
Temperature
16°C / 61°F
Dewpoint
C / 45°F
Humidity
55%
Altimeter
30.03" Hg
Pressure
1016.92 hPa
Previous

2 hours ago

EDDE 231920Z VRB01KT CAVOK 16/07 Q1017 NOSIG
Observed
May-23 @ 19:20 UTC
Wind
  • Variable at 1 KTS
Visibility
10,000+ meters
Flight Rules
VFR
Cloud Levels
  • Clear skies
Temperature
16°C / 61°F
Dewpoint
C / 45°F
Humidity
55%
Altimeter
30.03" Hg
Pressure
1016.92 hPa